createdAt,value
2019-02-18T00:00:01.126Z,1022.86
2019-02-18T00:01:00.936Z,1022.85
2019-02-18T00:02:01.649Z,1022.82
2019-02-18T00:03:00.964Z,1022.85
2019-02-18T00:04:00.932Z,1022.9
2019-02-18T00:05:01.939Z,1022.88
2019-02-18T00:06:00.883Z,1022.88
2019-02-18T00:07:00.951Z,1022.86
2019-02-18T00:08:00.909Z,1022.87
2019-02-18T00:09:01.598Z,1022.88
2019-02-18T00:10:00.935Z,1022.85
2019-02-18T00:11:01.398Z,1022.83
2019-02-18T00:12:01.334Z,1022.88
2019-02-18T00:13:00.979Z,1022.86
2019-02-18T00:14:00.913Z,1022.88
2019-02-18T00:15:00.920Z,1022.86
2019-02-18T00:16:00.973Z,1022.87
2019-02-18T00:17:00.784Z,1022.84
2019-02-18T00:18:00.914Z,1022.85
2019-02-18T00:19:01.455Z,1022.86
2019-02-18T00:20:02.629Z,1022.86
2019-02-18T00:21:00.913Z,1022.87
2019-02-18T00:22:00.776Z,1022.87
2019-02-18T00:23:00.999Z,1022.94
2019-02-18T00:24:02.021Z,1022.92
2019-02-18T00:25:01.654Z,1022.92
2019-02-18T00:26:01.092Z,1022.95
2019-02-18T00:27:00.591Z,1022.92
2019-02-18T00:28:00.945Z,1022.88
2019-02-18T00:29:00.952Z,1022.96
2019-02-18T00:30:01.021Z,1022.93
2019-02-18T00:31:01.118Z,1022.95
2019-02-18T00:32:00.920Z,1022.93
2019-02-18T00:33:01.040Z,1022.96
2019-02-18T00:34:01.045Z,1022.96
2019-02-18T00:35:01.057Z,1022.92
2019-02-18T00:36:01.255Z,1022.98
2019-02-18T00:37:00.917Z,1023
2019-02-18T00:38:00.744Z,1022.98
2019-02-18T00:39:01.072Z,1022.99
2019-02-18T00:40:01.091Z,1022.97
2019-02-18T00:41:02.585Z,1022.98
2019-02-18T00:42:01.197Z,1022.99
2019-02-18T00:43:01.305Z,1022.97
2019-02-18T00:44:01.010Z,1022.99
2019-02-18T00:45:01.330Z,1022.98
2019-02-18T00:46:00.722Z,1023.02
2019-02-18T00:47:00.719Z,1022.98
2019-02-18T00:48:01.032Z,1023.04
2019-02-18T00:49:01.351Z,1023.05
2019-02-18T00:50:01.776Z,1023.04
2019-02-18T00:51:00.730Z,1023.02
2019-02-18T00:52:00.962Z,1023.08
2019-02-18T00:53:01.387Z,1023.06
2019-02-18T00:54:01.028Z,1023.03
2019-02-18T00:55:01.086Z,1023.04
2019-02-18T00:56:01.009Z,1023.07
2019-02-18T00:57:00.849Z,1023.09
2019-02-18T00:58:00.719Z,1023.06
2019-02-18T00:59:01.114Z,1023.07
2019-02-18T01:00:01.435Z,1023.05
2019-02-18T01:01:02.644Z,1023.07
2019-02-18T01:02:01.024Z,1023.05
2019-02-18T01:03:01.344Z,1023.07
2019-02-18T01:04:00.770Z,1023.08
2019-02-18T01:05:01.042Z,1023.07
2019-02-18T01:06:01.578Z,1023.07
2019-02-18T01:07:01.089Z,1023.07
2019-02-18T01:08:01.070Z,1023.09
2019-02-18T01:09:00.803Z,1023.12
2019-02-18T01:10:01.287Z,1023.09
2019-02-18T01:11:01.398Z,1023.01
2019-02-18T01:12:01.209Z,1023.07
2019-02-18T01:13:02.537Z,1023.01
2019-02-18T01:14:00.897Z,1023.01
2019-02-18T01:15:02.543Z,1023.06
2019-02-18T01:16:01.119Z,1023
2019-02-18T01:17:02.550Z,1023.02
2019-02-18T01:18:02.530Z,1022.99
2019-02-18T01:19:02.526Z,1022.98
2019-02-18T01:20:00.947Z,1022.97
2019-02-18T01:21:01.047Z,1022.99
2019-02-18T01:22:00.777Z,1022.98
2019-02-18T01:23:01.274Z,1023.01
2019-02-18T01:24:02.523Z,1023.01
2019-02-18T01:25:00.977Z,1023.01
2019-02-18T01:26:01.592Z,1022.99
2019-02-18T01:27:01.088Z,1022.98
2019-02-18T01:28:00.670Z,1023
2019-02-18T01:29:01.118Z,1022.97
2019-02-18T01:30:00.851Z,1022.95
2019-02-18T01:31:01.047Z,1022.94
2019-02-18T01:32:01.120Z,1022.94
2019-02-18T01:33:01.186Z,1022.95
2019-02-18T01:34:00.785Z,1022.94
2019-02-18T01:35:01.026Z,1022.97
2019-02-18T01:36:00.698Z,1022.97
2019-02-18T01:37:01.116Z,1022.96
2019-02-18T01:38:00.955Z,1022.98
2019-02-18T01:39:00.969Z,1022.97
2019-02-18T01:40:01.072Z,1022.95
2019-02-18T01:41:02.503Z,1022.96
2019-02-18T01:42:01.532Z,1022.98
2019-02-18T01:43:01.102Z,1022.99
2019-02-18T01:44:00.923Z,1022.94
2019-02-18T01:45:01.005Z,1022.95
2019-02-18T01:46:01.122Z,1022.95
2019-02-18T01:47:01.126Z,1022.96
2019-02-18T01:48:01.239Z,1022.92
2019-02-18T01:49:00.714Z,1022.93
2019-02-18T01:50:01.250Z,1022.91
2019-02-18T01:51:01.963Z,1022.9
2019-02-18T01:52:02.502Z,1022.93
2019-02-18T01:53:00.874Z,1022.94
2019-02-18T01:54:01.174Z,1022.92
2019-02-18T01:55:00.623Z,1022.94
2019-02-18T01:56:01.587Z,1022.93
2019-02-18T01:57:00.891Z,1022.94
2019-02-18T01:58:01.259Z,1022.9
2019-02-18T01:59:01.115Z,1022.93
2019-02-18T02:00:01.207Z,1022.91
2019-02-18T02:01:01.111Z,1022.91
2019-02-18T02:02:01.144Z,1022.87
2019-02-18T02:03:00.706Z,1022.88
2019-02-18T02:04:01.032Z,1022.9
2019-02-18T02:05:01.350Z,1022.91
2019-02-18T02:06:00.795Z,1022.88
2019-02-18T02:07:02.468Z,1022.89
2019-02-18T02:08:02.705Z,1022.85
2019-02-18T02:09:00.674Z,1022.85
2019-02-18T02:10:00.748Z,1022.82
2019-02-18T02:11:00.680Z,1022.87
2019-02-18T02:12:00.602Z,1022.82
2019-02-18T02:13:00.879Z,1022.84
2019-02-18T02:14:00.895Z,1022.78
2019-02-18T02:15:01.613Z,1022.76
2019-02-18T02:16:01.022Z,1022.75
2019-02-18T02:17:01.018Z,1022.77
2019-02-18T02:18:01.825Z,1022.7
2019-02-18T02:19:02.468Z,1022.69
2019-02-18T02:20:02.185Z,1022.65
2019-02-18T02:21:02.441Z,1022.67
2019-02-18T02:22:00.763Z,1022.69
2019-02-18T02:23:00.866Z,1022.67
2019-02-18T02:24:00.882Z,1022.68
2019-02-18T02:25:00.664Z,1022.66
2019-02-18T02:26:01.287Z,1022.68
2019-02-18T02:27:00.775Z,1022.68
2019-02-18T02:28:00.582Z,1022.74
2019-02-18T02:29:01.617Z,1022.69
2019-02-18T02:30:02.470Z,1022.7
2019-02-18T02:31:02.099Z,1022.7
2019-02-18T02:32:00.960Z,1022.7
2019-02-18T02:33:01.334Z,1022.66
2019-02-18T02:34:00.625Z,1022.68
2019-02-18T02:35:00.605Z,1022.65
2019-02-18T02:36:01.148Z,1022.68
2019-02-18T02:37:00.692Z,1022.64
2019-02-18T02:38:08.179Z,1022.65
2019-02-18T02:39:00.877Z,1022.64
2019-02-18T02:40:01.284Z,1022.62
2019-02-18T02:41:01.382Z,1022.63
2019-02-18T02:42:00.652Z,1022.61
2019-02-18T02:43:00.651Z,1022.59
2019-02-18T02:44:01.403Z,1022.63
2019-02-18T02:45:00.680Z,1022.62
2019-02-18T02:46:00.558Z,1022.66
2019-02-18T02:47:00.667Z,1022.67
2019-02-18T02:48:00.943Z,1022.66
2019-02-18T02:49:00.880Z,1022.61
2019-02-18T02:50:01.049Z,1022.64
2019-02-18T02:51:00.734Z,1022.62
2019-02-18T02:52:01.044Z,1022.61
2019-02-18T02:53:01.054Z,1022.61
2019-02-18T02:54:00.670Z,1022.58
2019-02-18T02:55:02.400Z,1022.57
2019-02-18T02:56:02.393Z,1022.55
2019-02-18T02:57:02.388Z,1022.53
2019-02-18T02:58:00.926Z,1022.53
2019-02-18T02:59:01.086Z,1022.53
2019-02-18T03:00:00.928Z,1022.52
2019-02-18T03:01:00.878Z,1022.53
2019-02-18T03:02:00.558Z,1022.54
2019-02-18T03:03:01.826Z,1022.53
2019-02-18T03:04:00.934Z,1022.53
2019-02-18T03:05:01.134Z,1022.51
2019-02-18T03:06:01.046Z,1022.5
2019-02-18T03:07:00.742Z,1022.57
2019-02-18T03:08:00.668Z,1022.5
2019-02-18T03:09:00.752Z,1022.54
2019-02-18T03:10:00.883Z,1022.53
2019-02-18T03:11:00.898Z,1022.55
2019-02-18T03:12:00.814Z,1022.55
2019-02-18T03:13:00.681Z,1022.59
2019-02-18T03:14:00.664Z,1022.55
2019-02-18T03:15:02.371Z,1022.54
2019-02-18T03:16:00.629Z,1022.55
2019-02-18T03:17:00.656Z,1022.56
2019-02-18T03:18:00.926Z,1022.57
2019-02-18T03:19:00.637Z,1022.54
2019-02-18T03:20:00.844Z,1022.55
2019-02-18T03:21:00.610Z,1022.53
2019-02-18T03:22:01.658Z,1022.56
2019-02-18T03:23:01.389Z,1022.56
2019-02-18T03:24:00.828Z,1022.53
2019-02-18T03:25:01.549Z,1022.55
2019-02-18T03:26:00.765Z,1022.53
2019-02-18T03:27:00.924Z,1022.57
2019-02-18T03:28:00.529Z,1022.56
2019-02-18T03:29:02.341Z,1022.6
2019-02-18T03:30:00.793Z,1022.58
2019-02-18T03:31:00.986Z,1022.59
2019-02-18T03:32:00.516Z,1022.58
2019-02-18T03:33:00.767Z,1022.6
2019-02-18T03:34:00.522Z,1022.59
2019-02-18T03:35:01.286Z,1022.65
2019-02-18T03:36:00.613Z,1022.63
2019-02-18T03:37:00.726Z,1022.62
2019-02-18T03:38:00.780Z,1022.58
2019-02-18T03:39:00.760Z,1022.61
2019-02-18T03:40:00.630Z,1022.6
2019-02-18T03:41:03.724Z,1022.59
2019-02-18T03:42:01.947Z,1022.61
2019-02-18T03:43:00.495Z,1022.57
2019-02-18T03:44:01.174Z,1022.56
2019-02-18T03:45:00.616Z,1022.57
2019-02-18T03:46:02.329Z,1022.59
2019-02-18T03:47:00.324Z,1022.56
2019-02-18T03:48:00.314Z,1022.58
2019-02-18T03:49:00.310Z,1022.58
2019-02-18T03:50:00.380Z,1022.57
2019-02-18T03:51:00.830Z,1022.58
2019-02-18T03:52:00.506Z,1022.58
2019-02-18T03:53:00.950Z,1022.6
2019-02-18T03:54:00.738Z,1022.59
2019-02-18T03:55:00.906Z,1022.61
2019-02-18T03:56:00.772Z,1022.63
2019-02-18T03:57:00.757Z,1022.64
2019-02-18T03:58:00.795Z,1022.63
2019-02-18T03:59:01.185Z,1022.66
2019-02-18T04:00:00.897Z,1022.69
2019-02-18T04:01:00.793Z,1022.69
2019-02-18T04:02:01.104Z,1022.69
2019-02-18T04:03:00.552Z,1022.7
2019-02-18T04:04:02.321Z,1022.69
2019-02-18T04:05:00.968Z,1022.74
2019-02-18T04:06:00.629Z,1022.74
2019-02-18T04:07:01.034Z,1022.74
2019-02-18T04:08:00.981Z,1022.76
2019-02-18T04:09:02.360Z,1022.75
2019-02-18T04:10:00.652Z,1022.8
2019-02-18T04:11:00.577Z,1022.81
2019-02-18T04:12:00.555Z,1022.79
2019-02-18T04:13:00.781Z,1022.81
2019-02-18T04:14:00.789Z,1022.85
2019-02-18T04:15:00.900Z,1022.85
2019-02-18T04:16:00.889Z,1022.83
2019-02-18T04:17:00.906Z,1022.8
2019-02-18T04:18:00.565Z,1022.81
2019-02-18T04:19:00.669Z,1022.81
2019-02-18T04:20:01.137Z,1022.8
2019-02-18T04:21:00.821Z,1022.77
2019-02-18T04:22:00.732Z,1022.82
2019-02-18T04:23:00.569Z,1022.75
2019-02-18T04:24:00.854Z,1022.76
2019-02-18T04:25:00.860Z,1022.79
2019-02-18T04:26:00.791Z,1022.76
2019-02-18T04:27:00.538Z,1022.73
2019-02-18T04:28:00.788Z,1022.72
2019-02-18T04:29:00.774Z,1022.73
2019-02-18T04:30:00.787Z,1022.74
2019-02-18T04:31:01.778Z,1022.74
2019-02-18T04:32:01.624Z,1022.7
2019-02-18T04:33:00.268Z,1022.69
2019-02-18T04:34:00.420Z,1022.69
2019-02-18T04:35:00.848Z,1022.68
2019-02-18T04:36:00.616Z,1022.72
2019-02-18T04:37:00.661Z,1022.72
2019-02-18T04:38:00.561Z,1022.72
2019-02-18T04:39:02.265Z,1022.72
2019-02-18T04:40:00.575Z,1022.75
2019-02-18T04:41:00.551Z,1022.72
2019-02-18T04:42:00.538Z,1022.72
2019-02-18T04:43:00.458Z,1022.72
2019-02-18T04:44:01.311Z,1022.71
2019-02-18T04:45:00.524Z,1022.72
2019-02-18T04:46:00.495Z,1022.74
2019-02-18T04:47:00.508Z,1022.74
2019-02-18T04:48:00.714Z,1022.74
2019-02-18T04:49:01.638Z,1022.71
2019-02-18T04:50:00.484Z,1022.76
2019-02-18T04:51:00.542Z,1022.73
2019-02-18T04:52:02.223Z,1022.75
2019-02-18T04:53:00.951Z,1022.76
2019-02-18T04:54:00.948Z,1022.72
2019-02-18T04:55:00.460Z,1022.73
2019-02-18T04:56:01.334Z,1022.72
2019-02-18T04:57:00.767Z,1022.71
2019-02-18T04:58:00.774Z,1022.7
2019-02-18T04:59:00.660Z,1022.69
2019-02-18T05:00:01.076Z,1022.67
2019-02-18T05:01:03.162Z,1022.68
2019-02-18T05:02:00.678Z,1022.66
2019-02-18T05:03:00.999Z,1022.66
2019-02-18T05:04:00.657Z,1022.69
2019-02-18T05:05:00.861Z,1022.66
2019-02-18T05:06:00.772Z,1022.66
2019-02-18T05:07:02.238Z,1022.67
2019-02-18T05:08:01.271Z,1022.64
2019-02-18T05:09:05.898Z,1022.64
2019-02-18T05:10:00.639Z,1022.64
2019-02-18T05:11:00.459Z,1022.64
2019-02-18T05:12:00.191Z,1022.63
2019-02-18T05:13:02.215Z,1022.67
2019-02-18T05:14:00.175Z,1022.66
2019-02-18T05:15:00.226Z,1022.64
2019-02-18T05:16:00.173Z,1022.67
2019-02-18T05:17:00.204Z,1022.68
2019-02-18T05:18:00.173Z,1022.66
2019-02-18T05:19:00.586Z,1022.69
2019-02-18T05:20:00.706Z,1022.68
2019-02-18T05:21:00.814Z,1022.66
2019-02-18T05:22:00.976Z,1022.7
2019-02-18T05:23:00.724Z,1022.69
2019-02-18T05:24:00.414Z,1022.68
2019-02-18T05:25:01.147Z,1022.65
2019-02-18T05:26:00.524Z,1022.65
2019-02-18T05:27:00.749Z,1022.66
2019-02-18T05:28:00.645Z,1022.64
2019-02-18T05:29:02.288Z,1022.68
2019-02-18T05:30:00.719Z,1022.64
2019-02-18T05:31:01.385Z,1022.64
2019-02-18T05:32:00.371Z,1022.64
2019-02-18T05:33:00.685Z,1022.63
2019-02-18T05:34:00.319Z,1022.62
2019-02-18T05:35:00.512Z,1022.62
2019-02-18T05:36:00.532Z,1022.61
2019-02-18T05:37:02.159Z,1022.61
2019-02-18T05:38:01.406Z,1022.66
2019-02-18T05:39:00.729Z,1022.63
2019-02-18T05:40:02.245Z,1022.66
2019-02-18T05:41:00.739Z,1022.64
2019-02-18T05:42:01.225Z,1022.65
2019-02-18T05:43:00.295Z,1022.62
2019-02-18T05:44:00.374Z,1022.65
2019-02-18T05:45:00.908Z,1022.64
2019-02-18T05:46:00.397Z,1022.66
2019-02-18T05:47:02.154Z,1022.69
2019-02-18T05:48:00.534Z,1022.67
2019-02-18T05:49:00.684Z,1022.66
2019-02-18T05:50:00.505Z,1022.68
2019-02-18T05:51:00.863Z,1022.7
2019-02-18T05:52:00.603Z,1022.69
2019-02-18T05:53:00.413Z,1022.68
2019-02-18T05:54:00.298Z,1022.66
2019-02-18T05:55:00.632Z,1022.64
2019-02-18T05:56:01.305Z,1022.65
2019-02-18T05:57:00.469Z,1022.63
2019-02-18T05:58:00.658Z,1022.65
2019-02-18T05:59:00.303Z,1022.69
2019-02-18T06:00:01.884Z,1022.64
2019-02-18T06:01:02.120Z,1022.66
2019-02-18T06:02:00.992Z,1022.68
2019-02-18T06:03:00.804Z,1022.69
2019-02-18T06:04:00.592Z,1022.66
2019-02-18T06:05:00.998Z,1022.64
2019-02-18T06:06:00.473Z,1022.67
2019-02-18T06:07:02.121Z,1022.64
2019-02-18T06:08:00.516Z,1022.67
2019-02-18T06:09:01.251Z,1022.65
2019-02-18T06:10:00.824Z,1022.68
2019-02-18T06:11:00.626Z,1022.67
2019-02-18T06:12:00.327Z,1022.71
2019-02-18T06:13:00.549Z,1022.7
2019-02-18T06:14:00.861Z,1022.7
2019-02-18T06:15:00.744Z,1022.74
2019-02-18T06:16:00.662Z,1022.73
2019-02-18T06:17:02.983Z,1022.71
2019-02-18T06:18:01.493Z,1022.72
2019-02-18T06:19:00.288Z,1022.73
2019-02-18T06:20:00.375Z,1022.67
2019-02-18T06:21:02.112Z,1022.66
2019-02-18T06:22:01.212Z,1022.68
2019-02-18T06:23:02.091Z,1022.67
2019-02-18T06:24:00.418Z,1022.68
2019-02-18T06:25:00.485Z,1022.67
2019-02-18T06:26:00.539Z,1022.63
2019-02-18T06:27:00.761Z,1022.65
2019-02-18T06:28:00.562Z,1022.64
2019-02-18T06:29:00.313Z,1022.62
2019-02-18T06:30:00.855Z,1022.63
2019-02-18T06:31:00.705Z,1022.61
2019-02-18T06:32:00.426Z,1022.66
2019-02-18T06:33:01.343Z,1022.62
2019-02-18T06:34:00.574Z,1022.62
2019-02-18T06:35:00.939Z,1022.64
2019-02-18T06:36:01.107Z,1022.63
2019-02-18T06:37:00.358Z,1022.63
2019-02-18T06:38:00.703Z,1022.63
2019-02-18T06:39:00.813Z,1022.65
2019-02-18T06:40:00.379Z,1022.62
2019-02-18T06:41:00.353Z,1022.63
2019-02-18T06:42:00.343Z,1022.63
2019-02-18T06:43:00.643Z,1022.64
2019-02-18T06:44:01.212Z,1022.63
2019-02-18T06:45:00.978Z,1022.67
2019-02-18T06:46:01.490Z,1022.64
2019-02-18T06:47:00.554Z,1022.61
2019-02-18T06:48:00.371Z,1022.65
2019-02-18T06:49:02.126Z,1022.66
2019-02-18T06:50:02.043Z,1022.71
2019-02-18T06:51:00.587Z,1022.69
2019-02-18T06:52:00.279Z,1022.66
2019-02-18T06:53:00.373Z,1022.66
2019-02-18T06:54:02.039Z,1022.68
2019-02-18T06:55:00.364Z,1022.66
2019-02-18T06:56:00.321Z,1022.65
2019-02-18T06:57:00.635Z,1022.63
2019-02-18T06:58:00.401Z,1022.65
2019-02-18T06:59:00.164Z,1022.64
2019-02-18T07:00:00.912Z,1022.66
2019-02-18T07:01:00.247Z,1022.68
2019-02-18T07:02:00.419Z,1022.72
2019-02-18T07:03:00.749Z,1022.73
2019-02-18T07:04:00.270Z,1022.76
2019-02-18T07:05:00.551Z,1022.76
2019-02-18T07:06:01.051Z,1022.77
2019-02-18T07:07:00.951Z,1022.78
2019-02-18T07:08:00.372Z,1022.81
2019-02-18T07:09:00.400Z,1022.81
2019-02-18T07:10:01.153Z,1022.82
2019-02-18T07:11:00.405Z,1022.85
2019-02-18T07:12:00.745Z,1022.81
2019-02-18T07:13:00.435Z,1022.82
2019-02-18T07:14:00.192Z,1022.82
2019-02-18T07:15:00.744Z,1022.8
2019-02-18T07:16:00.385Z,1022.82
2019-02-18T07:17:00.387Z,1022.84
2019-02-18T07:18:00.473Z,1022.77
2019-02-18T07:19:00.576Z,1022.79
2019-02-18T07:20:00.386Z,1022.83
2019-02-18T07:21:00.714Z,1022.81
2019-02-18T07:22:00.223Z,1022.85
2019-02-18T07:23:00.706Z,1022.81
2019-02-18T07:24:00.816Z,1022.88
2019-02-18T07:25:00.606Z,1022.84
2019-02-18T07:26:00.403Z,1022.81
2019-02-18T07:27:00.620Z,1022.89
2019-02-18T07:28:00.420Z,1022.87
2019-02-18T07:29:01.140Z,1022.82
2019-02-18T07:30:01.280Z,1022.86
2019-02-18T07:31:00.645Z,1022.87
2019-02-18T07:32:01.987Z,1022.86
2019-02-18T07:33:00.255Z,1022.88
2019-02-18T07:34:00.363Z,1022.83
2019-02-18T07:35:00.693Z,1022.83
2019-02-18T07:36:00.476Z,1022.84
2019-02-18T07:37:00.170Z,1022.86
2019-02-18T07:38:00.571Z,1022.84
2019-02-18T07:39:00.409Z,1022.85
2019-02-18T07:40:02.478Z,1022.86
2019-02-18T07:40:59.964Z,1022.82
2019-02-18T07:41:59.963Z,1022.84
2019-02-18T07:42:59.971Z,1022.83
2019-02-18T07:44:00.533Z,1022.87
2019-02-18T07:45:01.356Z,1022.83
2019-02-18T07:46:00.129Z,1022.83
2019-02-18T07:47:01.331Z,1022.82
2019-02-18T07:48:00.662Z,1022.86
2019-02-18T07:49:00.459Z,1022.88
2019-02-18T07:50:00.368Z,1022.84
2019-02-18T07:51:01.972Z,1022.85
2019-02-18T07:51:59.954Z,1022.85
2019-02-18T07:53:01.975Z,1022.82
2019-02-18T07:54:00.121Z,1022.85
2019-02-18T07:55:00.266Z,1022.85
2019-02-18T07:56:00.509Z,1022.85
2019-02-18T07:57:00.104Z,1022.86
2019-02-18T07:58:00.638Z,1022.88
2019-02-18T07:59:00.422Z,1022.88
2019-02-18T08:00:00.327Z,1022.87
2019-02-18T08:01:00.641Z,1022.92
2019-02-18T08:02:00.265Z,1022.87
2019-02-18T08:03:00.346Z,1022.91
2019-02-18T08:04:00.106Z,1022.92
2019-02-18T08:05:02.664Z,1022.86
2019-02-18T08:06:00.388Z,1022.87
2019-02-18T08:07:00.621Z,1022.92
2019-02-18T08:08:00.483Z,1022.88
2019-02-18T08:09:00.755Z,1022.86
2019-02-18T08:10:00.241Z,1022.86
2019-02-18T08:11:00.400Z,1022.85
2019-02-18T08:12:00.155Z,1022.83
2019-02-18T08:13:00.617Z,1022.86
2019-02-18T08:14:01.545Z,1022.85
2019-02-18T08:15:00.425Z,1022.86
2019-02-18T08:16:00.365Z,1022.84
2019-02-18T08:17:00.145Z,1022.86
2019-02-18T08:18:00.344Z,1022.83
2019-02-18T08:19:00.462Z,1022.87
2019-02-18T08:20:00.479Z,1022.83
2019-02-18T08:21:00.484Z,1022.84
2019-02-18T08:22:00.088Z,1022.85
2019-02-18T08:23:01.125Z,1022.83
2019-02-18T08:24:00.649Z,1022.86
2019-02-18T08:25:00.942Z,1022.85
2019-02-18T08:26:00.404Z,1022.85
2019-02-18T08:27:00.262Z,1022.83
2019-02-18T08:28:00.720Z,1022.84
2019-02-18T08:29:00.252Z,1022.78
2019-02-18T08:30:00.383Z,1022.79
2019-02-18T08:31:00.278Z,1022.79
2019-02-18T08:32:01.915Z,1022.78
2019-02-18T08:33:00.450Z,1022.76
2019-02-18T08:34:01.914Z,1022.77
2019-02-18T08:35:00.937Z,1022.73
2019-02-18T08:36:01.494Z,1022.75
2019-02-18T08:37:00.474Z,1022.73
2019-02-18T08:38:00.285Z,1022.73
2019-02-18T08:39:00.483Z,1022.73
2019-02-18T08:40:00.490Z,1022.67
2019-02-18T08:41:00.998Z,1022.72
2019-02-18T08:42:00.307Z,1022.7
2019-02-18T08:43:00.358Z,1022.62
2019-02-18T08:44:00.322Z,1022.62
2019-02-18T08:45:00.349Z,1022.6
2019-02-18T08:46:00.437Z,1022.62
2019-02-18T08:47:00.913Z,1022.61
2019-02-18T08:48:00.344Z,1022.61
2019-02-18T08:49:00.043Z,1022.56
2019-02-18T08:50:01.032Z,1022.58
2019-02-18T08:51:00.360Z,1022.62
2019-02-18T08:52:00.041Z,1022.58
2019-02-18T08:53:00.045Z,1022.57
2019-02-18T08:54:00.276Z,1022.58
2019-02-18T08:55:01.877Z,1022.56
2019-02-18T08:56:00.049Z,1022.54
2019-02-18T08:57:01.060Z,1022.59
2019-02-18T08:58:01.469Z,1022.58
2019-02-18T08:59:00.050Z,1022.57
2019-02-18T09:00:01.271Z,1022.54
2019-02-18T09:01:03.105Z,1022.53
2019-02-18T09:02:00.437Z,1022.5
2019-02-18T09:03:00.949Z,1022.54
2019-02-18T09:04:00.342Z,1022.51
2019-02-18T09:05:00.454Z,1022.49
2019-02-18T09:06:00.076Z,1022.53
2019-02-18T09:07:00.035Z,1022.5
2019-02-18T09:08:00.371Z,1022.55
2019-02-18T09:09:00.210Z,1022.55
2019-02-18T09:10:00.003Z,1022.56
2019-02-18T09:11:00.039Z,1022.55
2019-02-18T09:12:00.610Z,1022.51
2019-02-18T09:13:00.310Z,1022.54
2019-02-18T09:14:00.006Z,1022.52
2019-02-18T09:14:59.976Z,1022.49
2019-02-18T09:16:00.791Z,1022.49
2019-02-18T09:17:00.109Z,1022.49
2019-02-18T09:18:00.188Z,1022.51
2019-02-18T09:19:00.955Z,1022.53
2019-02-18T09:20:00.896Z,1022.55
2019-02-18T09:21:00.949Z,1022.57
2019-02-18T09:22:00.363Z,1022.53
2019-02-18T09:23:00.293Z,1022.51
2019-02-18T09:24:00.276Z,1022.49
2019-02-18T09:25:00.010Z,1022.48
2019-02-18T09:26:01.818Z,1022.51
2019-02-18T09:27:00.394Z,1022.5
2019-02-18T09:28:00.049Z,1022.51
2019-02-18T09:29:00.052Z,1022.49
2019-02-18T09:29:59.986Z,1022.5
2019-02-18T09:31:02.303Z,1022.48
2019-02-18T09:32:00.223Z,1022.47
2019-02-18T09:33:00.293Z,1022.5
2019-02-18T09:34:00.014Z,1022.51
2019-02-18T09:35:02.411Z,1022.51
2019-02-18T09:36:00.156Z,1022.57
2019-02-18T09:37:00.046Z,1022.52
2019-02-18T09:38:00.774Z,1022.54
2019-02-18T09:39:00.271Z,1022.5
2019-02-18T09:40:00.339Z,1022.48
2019-02-18T09:41:00.495Z,1022.44
2019-02-18T09:42:00.291Z,1022.41
2019-02-18T09:43:00.303Z,1022.43
2019-02-18T09:43:59.955Z,1022.41
2019-02-18T09:45:00.434Z,1022.42
2019-02-18T09:46:00.005Z,1022.38
2019-02-18T09:47:00.427Z,1022.41
2019-02-18T09:48:00.331Z,1022.39
2019-02-18T09:49:00.041Z,1022.39
2019-02-18T09:50:00.362Z,1022.37
2019-02-18T09:51:00.515Z,1022.39
2019-02-18T09:51:59.947Z,1022.4
2019-02-18T09:53:02.709Z,1022.37
2019-02-18T09:54:00.270Z,1022.38
2019-02-18T09:55:00.387Z,1022.38
2019-02-18T09:56:00.184Z,1022.37
2019-02-18T09:57:00.109Z,1022.37
2019-02-18T09:58:00.027Z,1022.35
2019-02-18T09:59:00.007Z,1022.34
2019-02-18T09:59:59.961Z,1022.32
2019-02-18T10:01:01.071Z,1022.33
2019-02-18T10:02:00.424Z,1022.31
2019-02-18T10:03:01.771Z,1022.29
2019-02-18T10:04:01.768Z,1022.34
2019-02-18T10:05:00.531Z,1022.3
2019-02-18T10:05:59.985Z,1022.28
2019-02-18T10:07:00.265Z,1022.28
2019-02-18T10:08:00.029Z,1022.28
2019-02-18T10:09:00.375Z,1022.27
2019-02-18T10:10:00.026Z,1022.24
2019-02-18T10:11:00.181Z,1022.26
2019-02-18T10:11:59.986Z,1022.26
2019-02-18T10:13:01.741Z,1022.26
2019-02-18T10:13:59.978Z,1022.25
2019-02-18T10:15:00.022Z,1022.27
2019-02-18T10:16:01.115Z,1022.22
2019-02-18T10:17:00.328Z,1022.22
2019-02-18T10:17:59.986Z,1022.22
2019-02-18T10:19:00.249Z,1022.2
2019-02-18T10:20:02.133Z,1022.14
2019-02-18T10:20:59.990Z,1022.17
2019-02-18T10:22:00.776Z,1022.13
2019-02-18T10:23:00.162Z,1022.15
2019-02-18T10:24:00.324Z,1022.11
2019-02-18T10:25:00.108Z,1022.12
2019-02-18T10:26:01.008Z,1022.11
2019-02-18T10:26:59.742Z,1022.11
2019-02-18T10:28:01.725Z,1022.09
2019-02-18T10:28:59.950Z,1022.09
2019-02-18T10:30:00.618Z,1022.06
2019-02-18T10:30:59.708Z,1022.09
2019-02-18T10:31:59.720Z,1022.01
2019-02-18T10:32:59.710Z,1022.06
2019-02-18T10:34:01.336Z,1022.05
2019-02-18T10:34:59.976Z,1022.02
2019-02-18T10:35:59.956Z,1022
2019-02-18T10:36:59.859Z,1022
2019-02-18T10:38:00.064Z,1022
2019-02-18T10:38:59.844Z,1021.96
2019-02-18T10:40:00.114Z,1021.98
2019-02-18T10:41:07.342Z,1021.97
2019-02-18T10:42:00.037Z,1021.95
2019-02-18T10:42:59.980Z,1021.94
2019-02-18T10:43:59.896Z,1021.95
2019-02-18T10:44:59.974Z,1021.92
2019-02-18T10:46:00.415Z,1021.89
2019-02-18T10:46:59.942Z,1021.9
2019-02-18T10:48:00.332Z,1021.87
2019-02-18T10:49:00.263Z,1021.89
2019-02-18T10:49:59.953Z,1021.85
2019-02-18T10:50:59.977Z,1021.83
2019-02-18T10:52:01.709Z,1021.78
2019-02-18T10:53:00.715Z,1021.78
2019-02-18T10:54:00.426Z,1021.81
2019-02-18T10:55:00.829Z,1021.78
2019-02-18T10:56:00.193Z,1021.76
2019-02-18T10:56:59.987Z,1021.75
2019-02-18T10:57:59.904Z,1021.71
2019-02-18T10:59:00.506Z,1021.72
2019-02-18T11:00:00.383Z,1021.7
2019-02-18T11:00:59.974Z,1021.66
2019-02-18T11:02:00.765Z,1021.62
2019-02-18T11:03:00.238Z,1021.63
2019-02-18T11:03:59.921Z,1021.61
2019-02-18T11:05:00.670Z,1021.59
2019-02-18T11:06:00.148Z,1021.61
2019-02-18T11:07:00.665Z,1021.58
2019-02-18T11:07:59.946Z,1021.52
2019-02-18T11:09:00.060Z,1021.49
2019-02-18T11:10:00.375Z,1021.51
2019-02-18T11:10:59.923Z,1021.47
2019-02-18T11:11:59.988Z,1021.41
2019-02-18T11:13:00.154Z,1021.36
2019-02-18T11:14:00.012Z,1021.37
2019-02-18T11:15:00.978Z,1021.37
2019-02-18T11:16:01.658Z,1021.35
2019-02-18T11:16:59.647Z,1021.29
2019-02-18T11:17:59.654Z,1021.31
2019-02-18T11:18:59.663Z,1021.31
2019-02-18T11:19:59.647Z,1021.23
2019-02-18T11:21:00.209Z,1021.24
2019-02-18T11:22:00.005Z,1021.19
2019-02-18T11:23:00.567Z,1021.14
2019-02-18T11:24:00.067Z,1021.12
2019-02-18T11:25:00.115Z,1021.07
2019-02-18T11:26:01.048Z,1021.08
2019-02-18T11:27:00.390Z,1021.09
2019-02-18T11:28:00.085Z,1021.06
2019-02-18T11:29:00.529Z,1021.05
2019-02-18T11:30:01.649Z,1021.03
2019-02-18T11:31:00.228Z,1020.98
2019-02-18T11:31:59.787Z,1020.99
2019-02-18T11:33:00.634Z,1020.97
2019-02-18T11:33:59.978Z,1020.97
2019-02-18T11:35:01.008Z,1020.93
2019-02-18T11:35:59.930Z,1020.92
2019-02-18T11:37:00.971Z,1020.91
2019-02-18T11:37:59.823Z,1020.87
2019-02-18T11:39:00.059Z,1020.85
2019-02-18T11:40:00.497Z,1020.83
2019-02-18T11:41:00.042Z,1020.82
2019-02-18T11:42:00.084Z,1020.77
2019-02-18T11:43:00.503Z,1020.79
2019-02-18T11:44:00.602Z,1020.76
2019-02-18T11:45:00.357Z,1020.73
2019-02-18T11:46:00.133Z,1020.75
2019-02-18T11:47:00.422Z,1020.73
2019-02-18T11:48:00.029Z,1020.72
2019-02-18T11:49:00.028Z,1020.71
2019-02-18T11:50:00.389Z,1020.68
2019-02-18T11:51:01.580Z,1020.66
2019-02-18T11:52:00.271Z,1020.7
2019-02-18T11:53:00.873Z,1020.64
2019-02-18T11:54:01.600Z,1020.64
2019-02-18T11:55:00.293Z,1020.63
2019-02-18T11:55:59.985Z,1020.6
2019-02-18T11:56:59.932Z,1020.58
2019-02-18T11:57:59.942Z,1020.57
2019-02-18T11:59:00.811Z,1020.53
2019-02-18T12:00:00.740Z,1020.51
2019-02-18T12:01:00.678Z,1020.51
2019-02-18T12:02:00.017Z,1020.49
2019-02-18T12:03:09.448Z,1020.48
2019-02-18T12:03:59.903Z,1020.45
2019-02-18T12:04:59.949Z,1020.46
2019-02-18T12:06:00.046Z,1020.43
2019-02-18T12:06:59.790Z,1020.41